Time;durP1;ratioP1;P1;durP2;ratioP2;P2;SDS_P1;SDS_P2;PMS_P1;PMS_P2;Temp;Humidity;BMP_temperature;BMP_pressure;BME280_temperature;BME280_humidity;BME280_pressure;Samples;Min_cycle;Max_cycle;Signal;HPM_P1;HPM_P2
2023/05/10 00:01:31;;;;;;;5.35;4.18;;;13.30;99.90;;;;;;4929095;29;20400;-72
2023/05/10 00:04:04;;;;;;;6.07;4.00;;;13.30;99.90;;;;;;4931550;28;20067;-74
2023/05/10 00:06:32;;;;;;;6.35;4.47;;;13.20;99.90;;;;;;4922150;29;20142;-75
2023/05/10 00:08:59;;;;;;;6.53;4.70;;;13.20;99.90;;;;;;4940986;28;20063;-72
2023/05/10 00:11:26;;;;;;;5.50;4.38;;;13.20;99.90;;;;;;4938030;29;20150;-76
2023/05/10 00:13:54;;;;;;;7.38;4.38;;;13.00;99.90;;;;;;4943523;28;20058;-74
2023/05/10 00:16:21;;;;;;;6.05;4.57;;;13.00;99.90;;;;;;4921699;28;20046;-71
2023/05/10 00:18:51;;;;;;;6.47;4.38;;;13.10;99.90;;;;;;4956003;28;20098;-71
2023/05/10 00:21:21;;;;;;;6.60;4.60;;;13.20;99.90;;;;;;4956386;28;20146;-74
2023/05/10 00:23:49;;;;;;;7.13;4.95;;;13.20;99.90;;;;;;4940877;29;20047;-76
2023/05/10 00:26:17;;;;;;;6.68;4.90;;;13.20;99.90;;;;;;4947632;28;20066;-76
2023/05/10 00:28:44;;;;;;;5.63;4.38;;;13.20;99.90;;;;;;4943874;28;20048;-72
2023/05/10 00:31:11;;;;;;;6.32;4.72;;;13.20;99.90;;;;;;4946074;28;20429;-70
2023/05/10 00:33:42;;;;;;;6.35;4.70;;;13.20;99.90;;;;;;4946885;28;20051;-74
2023/05/10 00:36:10;;;;;;;7.88;5.15;;;13.20;99.90;;;;;;4936984;29;20117;-76
2023/05/10 00:38:40;;;;;;;5.88;4.78;;;13.30;99.90;;;;;;4938323;29;20051;-72
2023/05/10 00:41:08;;;;;;;;;;;13.30;99.90;;;;;;4965601;28;20098;-77
2023/05/10 00:43:35;;;;;;;9.73;5.10;;;13.30;99.90;;;;;;4990182;28;19926;-76
2023/05/10 00:46:03;;;;;;;6.28;4.90;;;13.20;99.90;;;;;;4932355;28;20058;-78
2023/05/10 00:48:31;;;;;;;7.57;5.07;;;13.20;99.90;;;;;;4990486;28;20055;-74
2023/05/10 00:50:58;;;;;;;7.35;5.45;;;13.20;99.90;;;;;;4990091;28;20405;-74
2023/05/10 00:53:30;;;;;;;7.05;4.80;;;13.20;99.90;;;;;;4987585;28;20142;-72
2023/05/10 00:55:59;;;;;;;5.97;4.80;;;13.20;99.90;;;;;;4956803;28;20051;-78
2023/05/10 00:58:28;;;;;;;7.45;4.88;;;13.20;99.90;;;;;;4979119;28;20427;-77
2023/05/10 01:00:59;;;;;;;6.43;4.40;;;13.20;99.90;;;;;;4991833;28;20042;-74
2023/05/10 01:03:30;;;;;;;5.57;4.57;;;13.20;99.90;;;;;;4950552;28;20051;-72
2023/05/10 01:05:57;;;;;;;6.47;4.85;;;13.20;99.90;;;;;;4936975;28;20047;-74
2023/05/10 01:08:27;;;;;;;5.90;4.35;;;13.20;99.90;;;;;;4980726;28;20058;-73
2023/05/10 01:10:58;;;;;;;7.35;4.85;;;13.20;99.90;;;;;;4942741;29;20043;-72
2023/05/10 01:13:37;;;;;;;5.70;4.68;;;13.10;99.90;;;;;;4942965;28;20065;-74
2023/05/10 01:16:06;;;;;;;5.88;4.82;;;13.30;99.90;;;;;;4971139;28;20455;-71
2023/05/10 01:18:38;;;;;;;6.18;5.00;;;13.30;99.90;;;;;;4980519;28;20086;-70
2023/05/10 01:21:49;;;;;;;6.57;4.68;;;13.30;99.90;;;;;;4946664;28;20047;-72
2023/05/10 01:24:44;;;;;;;6.30;5.18;;;13.20;99.90;;;;;;4939945;28;20489;-77
2023/05/10 01:27:20;;;;;;;7.25;5.18;;;13.20;99.90;;;;;;4972398;28;20126;-73
2023/05/10 01:30:06;;;;;;;6.57;4.55;;;13.30;99.90;;;;;;4966265;28;20065;-76
2023/05/10 01:33:06;;;;;;;5.88;4.72;;;13.30;99.90;;;;;;4980074;28;20050;-74
2023/05/10 01:35:51;;;;;;;9.75;5.07;;;13.20;99.90;;;;;;4977789;28;20477;-75
2023/05/10 01:38:22;;;;;;;6.57;4.95;;;13.20;99.90;;;;;;4971070;28;20138;-74
2023/05/10 01:41:13;;;;;;;7.72;5.50;;;13.30;99.90;;;;;;4977690;28;20449;-74
2023/05/10 01:44:06;;;;;;;6.45;4.70;;;13.30;99.90;;;;;;4979124;28;20105;-74
2023/05/10 01:46:38;;;;;;;6.40;5.20;;;13.30;99.90;;;;;;4957218;28;20055;-74
2023/05/10 01:49:13;;;;;;;7.28;4.60;;;13.30;99.90;;;;;;4981908;28;20453;-75
2023/05/10 01:51:51;;;;;;;7.43;5.00;;;13.30;99.90;;;;;;4977230;28;20039;-74
2023/05/10 01:54:21;;;;;;;6.25;4.88;;;13.30;99.90;;;;;;4978120;28;20050;-75
2023/05/10 01:56:59;;;;;;;6.13;4.90;;;13.30;99.90;;;;;;4979074;28;20053;-73
2023/05/10 01:59:31;;;;;;;6.45;4.97;;;13.30;99.90;;;;;;4963939;28;20456;-76
2023/05/10 02:02:01;;;;;;;6.32;5.22;;;13.20;99.90;;;;;;4969616;28;20047;-73
2023/05/10 02:04:48;;;;;;;6.95;5.20;;;13.20;99.90;;;;;;4976453;28;20047;-73
2023/05/10 02:07:18;;;;;;;7.57;5.32;;;13.30;99.90;;;;;;4945912;28;20716;-74
2023/05/10 02:13:51;;;;;;;7.97;5.10;;;13.30;99.90;;;;;;4854597;29;20069;-73
2023/05/10 02:16:23;;;;;;;6.18;4.80;;;13.30;99.90;;;;;;4898671;29;20539;-75
2023/05/10 02:18:52;;;;;;;7.80;5.40;;;13.30;99.90;;;;;;4921165;29;20074;-74
2023/05/10 02:21:21;;;;;;;6.13;4.75;;;13.20;99.90;;;;;;4920887;29;20531;-73
2023/05/10 02:23:51;;;;;;;6.15;5.15;;;13.20;99.90;;;;;;4920875;29;20044;-74
2023/05/10 02:26:22;;;;;;;7.22;5.40;;;13.20;99.90;;;;;;4920105;29;20224;-74
2023/05/10 02:28:51;;;;;;;8.13;6.75;;;13.20;99.90;;;;;;4921218;29;20083;-75
2023/05/10 02:31:23;;;;;;;6.07;5.15;;;13.20;99.90;;;;;;4918709;29;20434;-72
2023/05/10 02:33:54;;;;;;;8.80;5.13;;;13.10;99.90;;;;;;4889406;29;20085;-71
2023/05/10 02:36:22;;;;;;;6.75;5.03;;;13.10;99.90;;;;;;4891576;29;20052;-73
2023/05/10 02:38:52;;;;;;;6.50;5.25;;;13.20;99.90;;;;;;4919945;29;20059;-75
2023/05/10 02:41:24;;;;;;;7.43;5.30;;;13.20;99.90;;;;;;4906651;29;20048;-75
2023/05/10 02:43:54;;;;;;;8.45;5.85;;;13.20;99.90;;;;;;4920306;29;20296;-73
2023/05/10 02:46:22;;;;;;;6.95;5.60;;;13.20;99.90;;;;;;4917868;29;20627;-75
2023/05/10 02:48:49;;;;;;;8.60;6.25;;;13.20;99.90;;;;;;4916572;29;21308;-74
2023/05/10 02:51:19;;;;;;;8.68;6.18;;;13.20;99.90;;;;;;4965399;28;20046;-72
2023/05/10 02:53:49;;;;;;;8.85;5.97;;;13.30;99.90;;;;;;4952878;28;20077;-74
2023/05/10 02:56:40;;;;;;;8.25;5.45;;;13.30;99.90;;;;;;4959315;28;20047;-71
2023/05/10 02:59:07;;;;;;;6.78;5.43;;;13.20;99.90;;;;;;4955788;28;20080;-75
2023/05/10 03:01:37;;;;;;;10.32;6.20;;;13.10;99.90;;;;;;4960165;28;20063;-73
2023/05/10 03:04:10;;;;;;;7.18;5.72;;;13.20;99.90;;;;;;4960533;28;20062;-73
2023/05/10 03:06:37;;;;;;;9.20;5.55;;;13.20;99.90;;;;;;4980255;28;20046;-75
2023/05/10 03:09:09;;;;;;;6.70;5.63;;;13.10;99.90;;;;;;4982046;28;20112;-72
2023/05/10 03:12:00;;;;;;;7.72;6.18;;;13.20;99.90;;;;;;4954358;28;20515;-74
2023/05/10 03:14:44;;;;;;;7.18;5.65;;;13.20;99.90;;;;;;4964038;28;20051;-75
2023/05/10 03:17:18;;;;;;;7.53;5.72;;;13.20;99.90;;;;;;4962722;28;20412;-76
2023/05/10 03:19:55;;;;;;;7.53;5.50;;;13.20;99.90;;;;;;4981144;28;20057;-76
2023/05/10 03:22:30;;;;;;;7.15;5.43;;;13.20;99.90;;;;;;4982071;28;20057;-72
2023/05/10 03:25:01;;;;;;;7.25;5.38;;;13.10;99.90;;;;;;4989669;28;20052;-77
2023/05/10 03:27:29;;;;;;;7.03;5.35;;;13.10;99.90;;;;;;4985658;28;20047;-77
2023/05/10 03:29:57;;;;;;;11.55;5.68;;;13.00;99.90;;;;;;4982758;28;20053;-75
2023/05/10 03:32:27;;;;;;;12.98;5.43;;;13.00;99.90;;;;;;4978662;28;20055;-70
2023/05/10 03:34:55;;;;;;;7.28;5.68;;;12.90;99.90;;;;;;4940916;28;20069;-76
2023/05/10 03:37:22;;;;;;;7.30;5.70;;;12.90;99.90;;;;;;4980371;28;20130;-74
2023/05/10 03:39:52;;;;;;;6.05;5.20;;;12.90;99.90;;;;;;4979113;28;20047;-74
2023/05/10 03:42:19;;;;;;;7.68;5.90;;;12.80;99.90;;;;;;4921933;28;20093;-77
2023/05/10 03:44:49;;;;;;;7.18;5.72;;;12.80;99.90;;;;;;4981594;28;20050;-72
2023/05/10 03:47:17;;;;;;;6.97;5.23;;;12.80;99.90;;;;;;4965446;28;20139;-77
2023/05/10 03:49:44;;;;;;;7.82;5.88;;;12.70;99.90;;;;;;4977287;28;20051;-76
2023/05/10 03:52:12;;;;;;;6.50;5.00;;;12.70;99.90;;;;;;4976854;28;20055;-75
2023/05/10 03:54:39;;;;;;;8.82;5.55;;;12.80;99.90;;;;;;4985308;28;20055;-78
2023/05/10 03:57:06;;;;;;;8.00;5.38;;;12.70;99.90;;;;;;4997518;28;20632;-77
2023/05/10 03:59:34;;;;;;;8.45;5.80;;;12.90;99.90;;;;;;4994312;28;20053;-75
2023/05/10 04:02:02;;;;;;;6.90;5.40;;;12.90;99.90;;;;;;4968352;28;20054;-78
2023/05/10 04:04:32;;;;;;;7.13;5.72;;;12.80;99.90;;;;;;4973776;28;20055;-74
2023/05/10 04:06:59;;;;;;;6.40;5.17;;;12.80;99.90;;;;;;4955346;28;20131;-74
2023/05/10 04:09:26;;;;;;;8.00;5.53;;;12.70;99.90;;;;;;4972425;28;20099;-76
2023/05/10 04:11:54;;;;;;;16.50;6.05;;;12.70;99.90;;;;;;4984634;28;20051;-77
2023/05/10 04:14:21;;;;;;;6.78;5.07;;;12.60;99.90;;;;;;4999491;28;20049;-77
2023/05/10 04:16:48;;;;;;;7.45;5.15;;;12.70;99.90;;;;;;4998336;28;20071;-76
2023/05/10 04:19:18;;;;;;;8.65;5.85;;;12.80;99.90;;;;;;4987762;28;20055;-78
2023/05/10 04:22:06;;;;;;;6.35;5.05;;;12.60;99.90;;;;;;4985841;28;20051;-76
2023/05/10 04:24:40;;;;;;;6.55;5.63;;;12.60;99.90;;;;;;4957886;28;20059;-77
2023/05/10 04:27:07;;;;;;;7.28;5.63;;;12.60;99.90;;;;;;4984166;28;20099;-74
2023/05/10 04:29:35;;;;;;;7.45;5.50;;;12.60;99.90;;;;;;4947828;28;20084;-76
2023/05/10 04:32:03;;;;;;;6.78;5.68;;;12.70;99.90;;;;;;4979714;28;20071;-76
2023/05/10 04:34:30;;;;;;;9.10;6.35;;;12.60;99.90;;;;;;4978292;28;20408;-75
2023/05/10 04:36:58;;;;;;;7.38;5.40;;;12.60;99.90;;;;;;4975223;28;20070;-76
2023/05/10 04:39:25;;;;;;;6.72;5.40;;;12.50;99.90;;;;;;4976954;28;20039;-74
2023/05/10 04:41:52;;;;;;;9.40;5.90;;;12.60;99.90;;;;;;4959488;28;20125;-76
2023/05/10 04:44:20;;;;;;;7.22;5.47;;;12.60;99.90;;;;;;4983621;28;20053;-73
2023/05/10 04:46:47;;;;;;;10.23;5.60;;;12.70;99.90;;;;;;4978627;28;20050;-75
2023/05/10 04:49:16;;;;;;;8.23;5.82;;;12.70;99.90;;;;;;4979607;28;20394;-75
2023/05/10 04:51:46;;;;;;;8.15;5.30;;;12.80;99.90;;;;;;4989887;28;20043;-77
2023/05/10 04:54:13;;;;;;;6.90;5.70;;;12.60;99.90;;;;;;4967904;28;20054;-71
2023/05/10 04:56:44;;;;;;;;;;;12.70;99.90;;;;;;4952838;28;20039;-71
2023/05/10 04:59:12;;;;;;;34.58;20.38;;;12.70;99.90;;;;;;4963766;28;20017;-76
2023/05/10 05:01:40;;;;;;;94.03;58.08;;;12.70;99.90;;;;;;4963306;28;20062;-72
2023/05/10 05:04:10;;;;;;;23.35;17.10;;;12.90;99.90;;;;;;4976426;28;20053;-73
2023/05/10 05:06:37;;;;;;;10.00;8.68;;;13.00;99.90;;;;;;4953113;28;20124;-71
2023/05/10 05:09:09;;;;;;;37.03;23.40;;;13.00;99.90;;;;;;4954608;28;20448;-72
2023/05/10 05:11:37;;;;;;;54.55;33.78;;;13.10;99.90;;;;;;4973085;28;20097;-73
2023/05/10 05:14:04;;;;;;;10.13;7.80;;;13.20;99.90;;;;;;4984163;28;20057;-75
2023/05/10 05:16:34;;;;;;;6.47;5.43;;;13.00;99.90;;;;;;4968525;28;20058;-76
2023/05/10 05:19:02;;;;;;;10.15;5.70;;;12.80;99.90;;;;;;4943250;28;20155;-75
2023/05/10 05:21:29;;;;;;;8.40;5.60;;;12.90;99.90;;;;;;4989455;28;20054;-71
2023/05/10 05:24:00;;;;;;;7.25;5.55;;;12.80;99.90;;;;;;4950439;28;20061;-75
2023/05/10 05:26:28;;;;;;;7.30;5.47;;;12.70;99.90;;;;;;4981280;28;20433;-74
2023/05/10 05:28:55;;;;;;;7.35;5.65;;;12.70;99.90;;;;;;4948433;28;20444;-72
2023/05/10 05:31:23;;;;;;;7.60;6.00;;;12.80;99.90;;;;;;4962870;28;20085;-72
2023/05/10 05:33:51;;;;;;;7.07;5.55;;;12.90;99.90;;;;;;4960789;28;20086;-73
2023/05/10 05:36:18;;;;;;;11.85;6.18;;;12.90;99.90;;;;;;4974684;28;20073;-73
2023/05/10 05:38:46;;;;;;;6.55;5.10;;;13.00;99.90;;;;;;4984598;28;20057;-75
2023/05/10 05:41:13;;;;;;;7.38;5.80;;;12.90;99.90;;;;;;4999755;28;20059;-75
2023/05/10 05:43:41;;;;;;;7.82;5.72;;;13.00;99.90;;;;;;5000354;28;20050;-73
2023/05/10 05:46:09;;;;;;;7.22;5.45;;;12.90;99.90;;;;;;4962276;28;20493;-71
2023/05/10 05:48:36;;;;;;;10.50;5.85;;;12.90;99.90;;;;;;4948001;28;20057;-74
2023/05/10 05:51:06;;;;;;;26.10;18.17;;;12.90;99.90;;;;;;4960607;28;20500;-74
2023/05/10 05:53:53;;;;;;;18.23;10.73;;;13.00;99.90;;;;;;5057319;23;20045;-72
2023/05/10 05:56:24;;;;;;;9.52;6.78;;;13.20;99.90;;;;;;5021395;28;20093;-72
2023/05/10 05:58:51;;;;;;;7.30;5.53;;;13.00;99.90;;;;;;5004551;28;20053;-76
2023/05/10 06:01:22;;;;;;;7.88;5.95;;;13.00;99.90;;;;;;5025118;28;20490;-73
2023/05/10 06:04:03;;;;;;;8.15;5.72;;;13.00;99.90;;;;;;5021147;28;20037;-76
2023/05/10 06:06:33;;;;;;;11.88;6.28;;;12.90;99.90;;;;;;5007044;28;20049;-76
2023/05/10 06:09:16;;;;;;;7.45;5.88;;;12.90;99.90;;;;;;5011515;28;20103;-73
2023/05/10 06:11:56;;;;;;;7.63;5.88;;;13.10;99.90;;;;;;5001931;28;20101;-74
2023/05/10 06:15:06;;;;;;;7.40;5.68;;;13.10;99.90;;;;;;5026505;28;20062;-73
2023/05/10 06:17:38;;;;;;;7.18;5.20;;;13.10;99.90;;;;;;4991795;28;20081;-74
2023/05/10 06:20:25;;;;;;;7.40;6.15;;;13.20;99.90;;;;;;5031418;28;20050;-73
2023/05/10 06:23:16;;;;;;;7.57;5.97;;;13.20;99.90;;;;;;5020954;28;20049;-73
2023/05/10 06:25:46;;;;;;;8.15;6.10;;;13.20;99.90;;;;;;4993824;28;20083;-75
2023/05/10 06:28:25;;;;;;;7.80;5.80;;;13.30;99.90;;;;;;5002657;28;20062;-72
2023/05/10 06:30:53;;;;;;;7.63;5.50;;;13.30;99.90;;;;;;4991719;28;20056;-75
2023/05/10 06:33:20;;;;;;;8.52;5.57;;;13.30;99.90;;;;;;5033819;28;20056;-77
2023/05/10 06:35:47;;;;;;;8.05;5.53;;;13.30;99.90;;;;;;5008240;28;20054;-75
2023/05/10 06:38:15;;;;;;;6.43;5.25;;;13.30;99.90;;;;;;5054051;28;20410;-72
2023/05/10 06:40:51;;;;;;;8.55;5.72;;;13.30;99.90;;;;;;4987952;28;20074;-73
2023/05/10 06:43:24;;;;;;;11.18;5.53;;;13.20;99.90;;;;;;5010022;28;20050;-72
2023/05/10 06:45:54;;;;;;;8.65;5.63;;;13.20;99.90;;;;;;4982424;28;20395;-73
2023/05/10 06:48:27;;;;;;;7.45;5.10;;;13.20;99.90;;;;;;4986820;28;20050;-77
2023/05/10 06:51:35;;;;;;;8.57;5.05;;;13.00;99.90;;;;;;5026624;28;20081;-71
2023/05/10 06:54:17;;;;;;;7.60;4.68;;;13.10;99.90;;;;;;5018696;28;20054;-74
2023/05/10 06:56:46;;;;;;;6.18;5.00;;;13.20;99.90;;;;;;5002836;28;20045;-74
2023/05/10 06:59:16;;;;;;;7.13;4.85;;;13.10;99.90;;;;;;5003036;28;20059;-76
2023/05/10 07:01:43;;;;;;;5.57;4.60;;;13.10;99.90;;;;;;5001905;28;20389;-73
2023/05/10 07:04:13;;;;;;;7.47;4.43;;;13.10;99.90;;;;;;4987937;28;20054;-72
2023/05/10 07:06:56;;;;;;;6.70;4.93;;;13.10;99.90;;;;;;4989705;28;20043;-74
2023/05/10 07:09:26;;;;;;;6.20;4.53;;;13.10;99.90;;;;;;5005311;28;20070;-72
2023/05/10 07:11:57;;;;;;;5.60;4.20;;;13.00;99.90;;;;;;4985792;28;20097;-72
2023/05/10 07:14:24;;;;;;;9.65;4.65;;;13.10;99.90;;;;;;4975614;28;20093;-71
2023/05/10 07:16:52;;;;;;;5.10;4.10;;;13.00;99.90;;;;;;4976194;28;20038;-72
2023/05/10 07:19:20;;;;;;;5.05;4.15;;;13.20;99.90;;;;;;5053604;23;20118;-73
2023/05/10 07:21:51;;;;;;;6.20;4.18;;;13.20;99.90;;;;;;4969030;28;20153;-73
2023/05/10 07:24:23;;;;;;;5.28;4.32;;;13.30;99.90;;;;;;4981692;28;20462;-72
2023/05/10 07:26:50;;;;;;;6.05;4.10;;;13.30;99.90;;;;;;4994542;23;20053;-74
2023/05/10 07:29:18;;;;;;;6.20;4.22;;;13.30;99.90;;;;;;4992854;28;20050;-73
2023/05/10 07:31:54;;;;;;;5.93;4.38;;;13.20;99.90;;;;;;4979076;28;20039;-73
2023/05/10 07:34:35;;;;;;;6.82;4.22;;;13.20;99.90;;;;;;4982249;28;20430;-70
2023/05/10 07:37:25;;;;;;;5.53;4.03;;;13.30;99.90;;;;;;4956305;28;20487;-73
2023/05/10 07:40:09;;;;;;;7.07;4.28;;;13.30;99.90;;;;;;4988319;28;20059;-72
2023/05/10 07:42:47;;;;;;;5.03;3.85;;;13.30;99.90;;;;;;4979381;28;20114;-77
2023/05/10 07:45:23;;;;;;;5.30;4.10;;;13.20;99.90;;;;;;4984408;28;20050;-73
2023/05/10 07:48:08;;;;;;;5.97;4.18;;;13.20;99.90;;;;;;4947518;28;20047;-75
2023/05/10 07:50:42;;;;;;;5.75;4.05;;;13.40;99.90;;;;;;4980848;28;20405;-73
2023/05/10 07:53:19;;;;;;;6.18;4.18;;;13.60;99.90;;;;;;4988540;28;20118;-72
2023/05/10 07:56:00;;;;;;;6.03;4.15;;;13.50;99.90;;;;;;4957385;28;20110;-72
2023/05/10 07:58:45;;;;;;;6.18;4.00;;;13.50;99.90;;;;;;4960933;28;20046;-73
2023/05/10 08:01:34;;;;;;;5.28;4.03;;;13.60;99.90;;;;;;4945221;28;20063;-73
2023/05/10 08:04:08;;;;;;;5.25;3.63;;;13.50;99.90;;;;;;4980125;28;20097;-72
2023/05/10 08:06:40;;;;;;;5.40;3.80;;;13.60;99.90;;;;;;4945963;28;20073;-74
2023/05/10 08:09:08;;;;;;;8.15;4.30;;;13.50;99.90;;;;;;4957063;28;20526;-72
2023/05/10 08:11:36;;;;;;;5.60;3.90;;;13.50;99.90;;;;;;4946590;28;20769;-72
2023/05/10 08:14:04;;;;;;;5.07;3.70;;;13.40;99.90;;;;;;4977539;28;20077;-75
2023/05/10 08:16:32;;;;;;;5.00;3.60;;;13.40;99.90;;;;;;4927572;28;20054;-73
2023/05/10 08:18:59;;;;;;;4.82;3.55;;;13.50;99.90;;;;;;4952341;28;20057;-71
2023/05/10 08:21:31;;;;;;;6.40;4.00;;;13.40;99.90;;;;;;4976524;28;20051;-74
2023/05/10 08:24:00;;;;;;;5.55;3.83;;;13.40;99.90;;;;;;4972628;28;20054;-71
2023/05/10 08:26:44;;;;;;;5.28;3.95;;;13.40;99.90;;;;;;4958992;28;20138;-72
2023/05/10 08:29:23;;;;;;;6.03;3.67;;;13.40;99.90;;;;;;4946527;28;20110;-74
2023/05/10 08:32:04;;;;;;;5.25;3.70;;;13.60;99.90;;;;;;4967265;28;20123;-71
2023/05/10 08:34:39;;;;;;;5.13;3.80;;;13.40;99.90;;;;;;4959387;28;20138;-72
2023/05/10 08:37:18;;;;;;;4.70;3.58;;;13.30;99.90;;;;;;4978310;28;20141;-72
2023/05/10 08:39:56;;;;;;;4.18;3.45;;;13.30;99.90;;;;;;4979421;28;20058;-73
2023/05/10 08:42:28;;;;;;;4.55;3.50;;;13.50;99.90;;;;;;4982228;28;20480;-73
2023/05/10 08:44:57;;;;;;;4.88;3.60;;;13.40;99.90;;;;;;4981234;28;20049;-76
2023/05/10 08:47:25;;;;;;;6.75;4.00;;;13.40;99.90;;;;;;4980372;28;20043;-73
2023/05/10 08:49:55;;;;;;;7.13;3.45;;;13.50;99.90;;;;;;4972312;28;20051;-72
2023/05/10 08:52:39;;;;;;;4.60;3.63;;;13.40;99.90;;;;;;4979351;28;20665;-73
2023/05/10 08:55:07;;;;;;;5.10;3.70;;;13.30;99.90;;;;;;4971363;28;20135;-73
2023/05/10 08:57:36;;;;;;;5.63;3.40;;;13.50;99.90;;;;;;4966029;28;20460;-72
2023/05/10 09:00:08;;;;;;;6.47;3.90;;;13.60;99.90;;;;;;4993053;28;20067;-75
2023/05/10 09:02:37;;;;;;;6.90;3.67;;;13.70;99.90;;;;;;4986929;28;20070;-70
2023/05/10 09:05:08;;;;;;;4.80;3.28;;;13.60;99.90;;;;;;4999486;28;20519;-72
2023/05/10 09:07:43;;;;;;;5.60;3.33;;;13.50;99.90;;;;;;4985109;28;20058;-71
2023/05/10 09:10:14;;;;;;;6.82;3.60;;;13.50;99.90;;;;;;4981958;28;20074;-73
2023/05/10 09:12:43;;;;;;;4.97;3.80;;;13.50;99.90;;;;;;4976450;28;20047;-72
2023/05/10 09:15:11;;;;;;;5.53;3.50;;;13.60;99.90;;;;;;4966064;28;20063;-72
2023/05/10 09:17:41;;;;;;;4.75;3.60;;;13.40;99.90;;;;;;4972436;28;20053;-76
2023/05/10 09:20:14;;;;;;;4.88;3.53;;;13.50;99.90;;;;;;4977836;28;20059;-71
2023/05/10 09:22:41;;;;;;;4.72;3.55;;;13.50;99.90;;;;;;4961758;28;20110;-74
2023/05/10 09:25:14;;;;;;;5.10;3.40;;;13.70;99.90;;;;;;4993565;28;20051;-71
2023/05/10 09:27:47;;;;;;;5.88;3.47;;;13.70;99.90;;;;;;4963355;28;20094;-73
2023/05/10 09:30:22;;;;;;;4.35;3.00;;;13.70;99.90;;;;;;4964505;28;20046;-73
2023/05/10 09:32:51;;;;;;;5.22;3.53;;;13.60;99.90;;;;;;4967059;28;20130;-72
2023/05/10 09:35:23;;;;;;;4.85;3.63;;;13.70;99.90;;;;;;4935640;28;20451;-72
2023/05/10 09:38:02;;;;;;;5.10;3.63;;;13.80;99.90;;;;;;4985240;28;20051;-71
2023/05/10 09:40:34;;;;;;;4.38;3.20;;;13.80;99.90;;;;;;4946068;28;20051;-73
2023/05/10 09:43:07;;;;;;;6.07;3.60;;;13.90;99.90;;;;;;4979646;28;20093;-78
2023/05/10 09:45:41;;;;;;;6.32;3.50;;;13.90;99.90;;;;;;4966638;28;20600;-73
2023/05/10 09:48:14;;;;;;;5.28;3.40;;;13.80;99.90;;;;;;4959012;28;20522;-74
2023/05/10 09:50:42;;;;;;;4.90;3.70;;;13.90;99.90;;;;;;4962330;28;20059;-73
2023/05/10 09:53:15;;;;;;;5.03;3.45;;;13.90;99.90;;;;;;4984194;28;20047;-72
2023/05/10 09:55:45;;;;;;;5.43;3.40;;;14.00;99.90;;;;;;4986728;28;20105;-71
2023/05/10 09:58:15;;;;;;;5.30;3.45;;;13.90;99.90;;;;;;4963819;28;20057;-73
2023/05/10 10:00:52;;;;;;;5.10;3.38;;;14.10;99.90;;;;;;4967570;28;20117;-73
2023/05/10 10:03:22;;;;;;;4.78;3.22;;;14.10;99.90;;;;;;4965315;28;20047;-73
2023/05/10 10:05:51;;;;;;;5.22;3.35;;;14.20;99.90;;;;;;4971166;28;20066;-78
2023/05/10 10:08:33;;;;;;;6.72;3.20;;;14.30;99.90;;;;;;4976412;28;20055;-77
2023/05/10 10:11:16;;;;;;;4.07;2.92;;;14.40;99.90;;;;;;4974535;28;20058;-78
2023/05/10 10:14:20;;;;;;;7.28;3.30;;;14.50;99.90;;;;;;4953267;29;20047;-80
2023/05/10 10:16:48;;;;;;;5.13;3.33;;;14.50;99.90;;;;;;4982544;28;20047;-78
2023/05/10 10:19:36;;;;;;;6.00;3.47;;;14.70;99.90;;;;;;4979171;28;20066;-74
2023/05/10 10:22:07;;;;;;;6.10;3.22;;;14.60;99.90;;;;;;4992936;28;20055;-79
2023/05/10 10:24:36;;;;;;;4.97;3.20;;;14.50;99.90;;;;;;4980106;28;20070;-76
2023/05/10 10:27:36;;;;;;;4.40;3.25;;;14.60;99.90;;;;;;5005385;28;20053;-76
2023/05/10 10:30:49;;;;;;;4.85;3.60;;;14.60;99.90;;;;;;4982405;28;20047;-79
2023/05/10 10:34:28;;;;;;;4.88;3.47;;;14.80;99.90;;;;;;4987571;28;20047;-73
2023/05/10 10:36:57;;;;;;;5.70;3.60;;;14.90;99.90;;;;;;4976359;29;20118;-74
2023/05/10 10:39:36;;;;;;;7.07;4.28;;;14.90;99.90;;;;;;4978308;28;20071;-72
2023/05/10 10:42:53;;;;;;;8.07;4.72;;;14.90;99.90;;;;;;5000607;28;20066;-80
2023/05/10 10:45:44;;;;;;;9.63;5.07;;;15.10;99.90;;;;;;4988940;28;20043;-84
2023/05/10 10:48:32;;;;;;;11.75;5.15;;;14.90;99.90;;;;;;4991070;28;20059;-75
2023/05/10 10:51:16;;;;;;;11.10;4.53;;;15.00;99.90;;;;;;4960406;28;20051;-74
2023/05/10 10:53:47;;;;;;;11.75;6.35;;;14.80;99.90;;;;;;4967547;28;20055;-78
2023/05/10 10:56:15;;;;;;;11.90;5.82;;;14.90;99.90;;;;;;4996428;28;20118;-73
2023/05/10 10:58:53;;;;;;;12.18;5.18;;;14.90;99.90;;;;;;4983846;28;20126;-76
2023/05/10 11:01:22;;;;;;;7.30;4.20;;;14.90;99.90;;;;;;4967978;28;20058;-75
2023/05/10 11:04:05;;;;;;;5.95;3.38;;;14.90;99.90;;;;;;4967984;28;20543;-76
2023/05/10 11:06:46;;;;;;;7.38;4.30;;;14.80;99.90;;;;;;4961745;28;20054;-73
2023/05/10 11:09:13;;;;;;;5.85;3.20;;;14.80;99.90;;;;;;4966473;28;20058;-76
2023/05/10 11:11:55;;;;;;;5.88;3.63;;;14.70;99.90;;;;;;4977570;28;20058;-74
2023/05/10 11:14:25;;;;;;;5.00;3.13;;;15.00;99.90;;;;;;4965147;28;20047;-74
2023/05/10 11:16:53;;;;;;;;;;;15.10;99.90;;;;;;4962583;28;20039;-71
2023/05/10 11:19:28;;;;;;;5.30;3.10;;;15.00;99.90;;;;;;4968368;28;19922;-78
2023/05/10 11:22:06;;;;;;;5.50;3.20;;;15.00;99.90;;;;;;4984320;28;20050;-77
2023/05/10 11:24:35;;;;;;;4.80;3.30;;;15.20;99.90;;;;;;4987865;28;20069;-76
2023/05/10 11:27:08;;;;;;;4.20;3.00;;;15.20;99.90;;;;;;4961354;28;20452;-77
2023/05/10 11:29:36;;;;;;;5.93;3.38;;;15.10;99.90;;;;;;4977195;28;20371;-76
2023/05/10 11:32:07;;;;;;;4.50;3.10;;;15.10;99.90;;;;;;4971010;28;20078;-77
2023/05/10 11:34:50;;;;;;;4.70;3.10;;;15.30;99.90;;;;;;4964448;28;20062;-75
2023/05/10 11:37:18;;;;;;;4.65;3.00;;;15.40;99.90;;;;;;4971563;28;20069;-77
2023/05/10 11:40:01;;;;;;;5.95;2.60;;;15.40;99.90;;;;;;4956437;28;20075;-79
2023/05/10 11:42:34;;;;;;;4.75;2.78;;;15.50;99.90;;;;;;4971005;28;20106;-79
2023/05/10 11:45:15;;;;;;;5.03;2.80;;;15.50;99.90;;;;;;4970569;28;20073;-76
2023/05/10 11:47:43;;;;;;;4.80;2.65;;;15.50;99.90;;;;;;4985539;28;20055;-79
2023/05/10 11:50:18;;;;;;;5.15;2.50;;;15.40;99.90;;;;;;4989020;28;20166;-75
2023/05/10 11:53:09;;;;;;;3.00;2.17;;;15.40;99.90;;;;;;4976285;28;20057;-74
2023/05/10 11:55:54;;;;;;;3.00;2.70;;;15.20;99.90;;;;;;4969103;28;20129;-78
2023/05/10 11:58:25;;;;;;;3.55;2.40;;;15.20;99.90;;;;;;4971189;28;20061;-77
2023/05/10 12:01:14;;;;;;;4.18;2.67;;;15.20;99.90;;;;;;4986999;28;20122;-75
2023/05/10 12:03:42;;;;;;;3.92;2.70;;;15.30;99.90;;;;;;4955396;28;20054;-78
2023/05/10 12:06:09;;;;;;;3.90;2.50;;;15.30;99.90;;;;;;5004609;28;20055;-73
2023/05/10 12:08:46;;;;;;;3.83;2.60;;;15.20;99.90;;;;;;4988308;28;20099;-76
2023/05/10 12:11:17;;;;;;;3.85;2.50;;;15.30;99.90;;;;;;4969771;28;20126;-75
2023/05/10 12:13:50;;;;;;;3.08;2.33;;;15.00;99.90;;;;;;4987444;28;20069;-74
2023/05/10 12:16:31;;;;;;;2.92;2.38;;;14.90;99.90;;;;;;4951732;28;20059;-78
2023/05/10 12:19:05;;;;;;;4.05;2.83;;;14.90;99.90;;;;;;4968741;28;20081;-77
2023/05/10 12:21:35;;;;;;;4.32;2.50;;;15.00;99.90;;;;;;4984086;28;20059;-75
2023/05/10 12:24:05;;;;;;;3.25;2.50;;;15.00;99.90;;;;;;4989094;28;20046;-79
2023/05/10 12:26:49;;;;;;;3.35;2.35;;;15.10;99.90;;;;;;4989463;28;20051;-75
2023/05/10 12:29:34;;;;;;;3.47;2.42;;;15.30;99.90;;;;;;4965968;28;20027;-79
2023/05/10 12:32:57;;;;;;;3.42;2.40;;;15.30;99.90;;;;;;4979606;28;20054;-76
2023/05/10 12:35:33;;;;;;;5.07;2.47;;;15.40;99.90;;;;;;4970576;28;20078;-78
2023/05/10 12:38:21;;;;;;;4.85;2.70;;;15.40;99.90;;;;;;4972437;28;20058;-78
2023/05/10 12:40:50;;;;;;;5.70;2.30;;;15.60;99.90;;;;;;4971154;28;20078;-73
2023/05/10 12:43:23;;;;;;;3.83;2.42;;;15.50;99.90;;;;;;4974668;28;20078;-74
2023/05/10 12:46:02;;;;;;;3.45;2.40;;;15.40;99.90;;;;;;4972996;28;20061;-80
2023/05/10 12:49:12;;;;;;;3.67;2.60;;;15.40;99.90;;;;;;4989699;28;20058;-78
2023/05/10 12:52:06;;;;;;;3.58;2.38;;;15.60;99.90;;;;;;4994972;23;20094;-75
2023/05/10 12:54:36;;;;;;;3.47;2.50;;;15.40;99.90;;;;;;4992630;28;20113;-72
2023/05/10 12:57:05;;;;;;;3.83;2.50;;;15.50;99.90;;;;;;5012835;23;20474;-75
2023/05/10 12:59:34;;;;;;;3.33;2.63;;;15.50;99.90;;;;;;5009217;28;20038;-77
2023/05/10 13:02:04;;;;;;;5.07;3.08;;;15.60;99.90;;;;;;4996981;28;20610;-78
2023/05/10 13:04:32;;;;;;;3.97;2.30;;;15.70;99.90;;;;;;4991258;28;20050;-76
2023/05/10 13:06:59;;;;;;;2.70;2.17;;;15.60;99.90;;;;;;5006005;28;20073;-75
2023/05/10 13:09:31;;;;;;;6.40;2.40;;;15.50;99.90;;;;;;4992718;28;20062;-79
2023/05/10 13:12:03;;;;;;;4.45;2.20;;;15.70;99.90;;;;;;5005015;28;20403;-77
2023/05/10 13:14:31;;;;;;;4.18;2.30;;;16.00;99.90;;;;;;4990879;28;20077;-74
2023/05/10 13:17:03;;;;;;;4.22;2.50;;;16.00;99.90;;;;;;5009390;28;20057;-77
2023/05/10 13:19:31;;;;;;;4.72;2.55;;;16.40;99.90;;;;;;5010308;28;20411;-78
2023/05/10 13:21:59;;;;;;;4.47;2.28;;;16.20;99.90;;;;;;5006711;28;20061;-79
2023/05/10 13:24:35;;;;;;;4.10;2.25;;;16.30;99.90;;;;;;5011791;28;20081;-78